N30 weather

Cherry Ridge Airport
Honesdale, Pennsylvania, United States

Public forecast

Using degrees Fahrenheit for public forecast. Weather courtesy of forecast.io.

Closest aviation weather report (METAR) to Cherry Ridge Airport

Closest report is Sullivan County International Airport, 23.3 nm (43.2 km) ENE. Retrieved 2019/10/21 14:32 UTC (0 seconds ago):

KMSV 211432Z AUTO 00000KT 8SM OVC003 08/07 A3013 RMK AO2

Closest aviation forecast (TAF) to Cherry Ridge Airport

Closest forecast is Wilkes Barre Scranton International Airport, 23.7 nm (44.0 km) WSW. Retrieved 2019/10/21 12:42 UTC (2 hours ago):

TAF KAVP 211141Z 2112/2212 VRB03KT P6SM OVC010 FM211400 11004KT P6SM SKC FM220600 13003KT P6SM OVC015